sensor_id;sensor_type;location;lat;lon;timestamp;P1;durP1;ratioP1;P2;durP2;ratioP2
27303;SDS011;14791;52.392;13.092;2023-03-31T00:01:27;1.53;;;1.43;;
27303;SDS011;14791;52.392;13.092;2023-03-31T00:03:59;1.60;;;1.50;;
27303;SDS011;14791;52.392;13.092;2023-03-31T00:06:31;1.77;;;1.67;;
27303;SDS011;14791;52.392;13.092;2023-03-31T00:09:04;1.10;;;1.10;;
27303;SDS011;14791;52.392;13.092;2023-03-31T00:11:35;1.50;;;1.40;;
27303;SDS011;14791;52.392;13.092;2023-03-31T00:14:04;1.43;;;1.33;;
27303;SDS011;14791;52.392;13.092;2023-03-31T00:16:35;1.83;;;1.40;;
27303;SDS011;14791;52.392;13.092;2023-03-31T00:19:05;1.43;;;1.33;;
27303;SDS011;14791;52.392;13.092;2023-03-31T00:21:35;1.33;;;1.33;;
27303;SDS011;14791;52.392;13.092;2023-03-31T00:24:06;1.20;;;1.20;;
27303;SDS011;14791;52.392;13.092;2023-03-31T00:26:37;2.73;;;1.47;;
27303;SDS011;14791;52.392;13.092;2023-03-31T00:29:08;1.57;;;1.30;;
27303;SDS011;14791;52.392;13.092;2023-03-31T00:31:39;2.47;;;1.03;;
27303;SDS011;14791;52.392;13.092;2023-03-31T00:34:08;2.27;;;1.20;;
27303;SDS011;14791;52.392;13.092;2023-03-31T00:36:37;1.80;;;1.50;;
27303;SDS011;14791;52.392;13.092;2023-03-31T00:39:08;1.40;;;1.30;;
27303;SDS011;14791;52.392;13.092;2023-03-31T00:41:37;1.33;;;1.33;;
27303;SDS011;14791;52.392;13.092;2023-03-31T00:46:59;1.20;;;1.20;;
27303;SDS011;14791;52.392;13.092;2023-03-31T00:49:45;1.30;;;1.10;;
27303;SDS011;14791;52.392;13.092;2023-03-31T00:52:17;1.13;;;1.10;;
27303;SDS011;14791;52.392;13.092;2023-03-31T00:54:48;1.80;;;1.10;;
27303;SDS011;14791;52.392;13.092;2023-03-31T00:57:19;1.40;;;1.30;;
27303;SDS011;14791;52.392;13.092;2023-03-31T00:59:52;1.00;;;0.90;;
27303;SDS011;14791;52.392;13.092;2023-03-31T01:02:27;1.73;;;1.20;;
27303;SDS011;14791;52.392;13.092;2023-03-31T01:04:57;0.90;;;0.80;;
27303;SDS011;14791;52.392;13.092;2023-03-31T01:10:12;1.07;;;1.03;;
27303;SDS011;14791;52.392;13.092;2023-03-31T01:12:42;1.30;;;1.13;;
27303;SDS011;14791;52.392;13.092;2023-03-31T01:15:13;1.20;;;1.13;;
27303;SDS011;14791;52.392;13.092;2023-03-31T01:17:42;1.33;;;1.00;;
27303;SDS011;14791;52.392;13.092;2023-03-31T01:20:35;2.83;;;1.10;;
27303;SDS011;14791;52.392;13.092;2023-03-31T01:31:51;0.77;;;0.77;;
27303;SDS011;14791;52.392;13.092;2023-03-31T01:34:47;1.33;;;1.00;;
27303;SDS011;14791;52.392;13.092;2023-03-31T01:48:29;1.10;;;1.00;;
27303;SDS011;14791;52.392;13.092;2023-03-31T01:51:00;1.90;;;0.90;;
27303;SDS011;14791;52.392;13.092;2023-03-31T01:53:49;1.70;;;0.70;;
27303;SDS011;14791;52.392;13.092;2023-03-31T01:56:45;4.77;;;1.50;;
27303;SDS011;14791;52.392;13.092;2023-03-31T01:59:10;1.20;;;1.10;;
27303;SDS011;14791;52.392;13.092;2023-03-31T02:01:45;1.10;;;1.00;;
27303;SDS011;14791;52.392;13.092;2023-03-31T02:04:20;0.97;;;0.80;;
27303;SDS011;14791;52.392;13.092;2023-03-31T02:06:56;0.97;;;0.67;;
27303;SDS011;14791;52.392;13.092;2023-03-31T02:09:33;2.23;;;0.90;;
27303;SDS011;14791;52.392;13.092;2023-03-31T02:11:58;0.97;;;0.83;;
27303;SDS011;14791;52.392;13.092;2023-03-31T02:14:29;1.00;;;1.00;;
27303;SDS011;14791;52.392;13.092;2023-03-31T02:17:00;2.23;;;1.00;;
27303;SDS011;14791;52.392;13.092;2023-03-31T02:19:32;0.70;;;0.70;;
27303;SDS011;14791;52.392;13.092;2023-03-31T02:22:04;1.47;;;1.00;;
27303;SDS011;14791;52.392;13.092;2023-03-31T02:24:35;1.73;;;1.00;;
27303;SDS011;14791;52.392;13.092;2023-03-31T02:27:09;0.70;;;0.60;;
27303;SDS011;14791;52.392;13.092;2023-03-31T02:29:40;1.60;;;0.90;;
27303;SDS011;14791;52.392;13.092;2023-03-31T02:32:23;0.60;;;0.60;;
27303;SDS011;14791;52.392;13.092;2023-03-31T02:34:54;0.70;;;0.70;;
27303;SDS011;14791;52.392;13.092;2023-03-31T02:37:23;0.70;;;0.70;;
27303;SDS011;14791;52.392;13.092;2023-03-31T02:39:54;1.57;;;0.80;;
27303;SDS011;14791;52.392;13.092;2023-03-31T02:42:26;1.37;;;0.77;;
27303;SDS011;14791;52.392;13.092;2023-03-31T02:45:00;0.70;;;0.70;;
27303;SDS011;14791;52.392;13.092;2023-03-31T02:47:29;2.10;;;1.10;;
27303;SDS011;14791;52.392;13.092;2023-03-31T02:50:00;1.13;;;0.80;;
27303;SDS011;14791;52.392;13.092;2023-03-31T02:52:50;0.83;;;0.83;;
27303;SDS011;14791;52.392;13.092;2023-03-31T02:55:41;3.63;;;1.10;;
27303;SDS011;14791;52.392;13.092;2023-03-31T02:58:24;0.83;;;0.83;;
27303;SDS011;14791;52.392;13.092;2023-03-31T03:03:45;0.60;;;0.60;;
27303;SDS011;14791;52.392;13.092;2023-03-31T03:06:32;0.87;;;0.87;;
27303;SDS011;14791;52.392;13.092;2023-03-31T03:17:34;1.10;;;1.00;;
27303;SDS011;14791;52.392;13.092;2023-03-31T03:20:04;0.77;;;0.77;;
27303;SDS011;14791;52.392;13.092;2023-03-31T03:22:35;0.90;;;0.90;;
27303;SDS011;14791;52.392;13.092;2023-03-31T03:25:07;0.70;;;0.70;;
27303;SDS011;14791;52.392;13.092;2023-03-31T03:27:38;0.63;;;0.63;;
27303;SDS011;14791;52.392;13.092;2023-03-31T03:30:08;1.40;;;0.97;;
27303;SDS011;14791;52.392;13.092;2023-03-31T03:32:38;0.80;;;0.80;;
27303;SDS011;14791;52.392;13.092;2023-03-31T03:35:08;1.47;;;0.80;;
27303;SDS011;14791;52.392;13.092;2023-03-31T03:37:37;1.33;;;0.90;;
27303;SDS011;14791;52.392;13.092;2023-03-31T03:40:07;1.20;;;0.93;;
27303;SDS011;14791;52.392;13.092;2023-03-31T03:42:36;0.97;;;0.97;;
27303;SDS011;14791;52.392;13.092;2023-03-31T03:45:05;0.93;;;0.93;;
27303;SDS011;14791;52.392;13.092;2023-03-31T03:47:35;1.90;;;1.27;;
27303;SDS011;14791;52.392;13.092;2023-03-31T03:50:04;1.17;;;1.07;;
27303;SDS011;14791;52.392;13.092;2023-03-31T03:52:34;1.00;;;1.00;;
27303;SDS011;14791;52.392;13.092;2023-03-31T03:55:03;2.20;;;1.10;;
27303;SDS011;14791;52.392;13.092;2023-03-31T03:57:32;1.10;;;1.00;;
27303;SDS011;14791;52.392;13.092;2023-03-31T04:00:01;0.70;;;0.70;;
27303;SDS011;14791;52.392;13.092;2023-03-31T04:02:34;1.10;;;1.00;;
27303;SDS011;14791;52.392;13.092;2023-03-31T04:05:03;1.40;;;0.83;;
27303;SDS011;14791;52.392;13.092;2023-03-31T04:07:32;1.13;;;1.00;;
27303;SDS011;14791;52.392;13.092;2023-03-31T04:10:01;0.83;;;0.83;;
27303;SDS011;14791;52.392;13.092;2023-03-31T04:12:30;0.93;;;0.93;;
27303;SDS011;14791;52.392;13.092;2023-03-31T04:15:04;0.83;;;0.83;;
27303;SDS011;14791;52.392;13.092;2023-03-31T04:17:33;0.87;;;0.87;;
27303;SDS011;14791;52.392;13.092;2023-03-31T04:20:04;0.90;;;0.90;;
27303;SDS011;14791;52.392;13.092;2023-03-31T04:22:35;1.03;;;0.90;;
27303;SDS011;14791;52.392;13.092;2023-03-31T04:25:09;0.80;;;0.80;;
27303;SDS011;14791;52.392;13.092;2023-03-31T04:27:42;0.90;;;0.90;;
27303;SDS011;14791;52.392;13.092;2023-03-31T04:30:25;1.93;;;0.80;;
27303;SDS011;14791;52.392;13.092;2023-03-31T04:32:58;1.83;;;0.90;;
27303;SDS011;14791;52.392;13.092;2023-03-31T04:35:30;1.13;;;0.90;;
27303;SDS011;14791;52.392;13.092;2023-03-31T04:38:19;1.00;;;1.00;;
27303;SDS011;14791;52.392;13.092;2023-03-31T04:40:50;1.10;;;1.10;;
27303;SDS011;14791;52.392;13.092;2023-03-31T04:43:20;0.90;;;0.90;;
27303;SDS011;14791;52.392;13.092;2023-03-31T04:45:49;0.80;;;0.80;;
27303;SDS011;14791;52.392;13.092;2023-03-31T04:48:18;0.80;;;0.80;;
27303;SDS011;14791;52.392;13.092;2023-03-31T04:50:47;2.43;;;1.43;;
27303;SDS011;14791;52.392;13.092;2023-03-31T04:53:16;0.90;;;0.90;;
27303;SDS011;14791;52.392;13.092;2023-03-31T04:55:45;1.10;;;0.80;;
27303;SDS011;14791;52.392;13.092;2023-03-31T04:58:15;1.80;;;1.03;;
27303;SDS011;14791;52.392;13.092;2023-03-31T05:00:44;1.17;;;1.10;;
27303;SDS011;14791;52.392;13.092;2023-03-31T05:03:13;1.20;;;0.90;;
27303;SDS011;14791;52.392;13.092;2023-03-31T05:05:42;1.07;;;1.00;;
27303;SDS011;14791;52.392;13.092;2023-03-31T05:08:11;0.87;;;0.87;;
27303;SDS011;14791;52.392;13.092;2023-03-31T05:10:40;0.83;;;0.80;;
27303;SDS011;14791;52.392;13.092;2023-03-31T05:13:09;0.87;;;0.87;;
27303;SDS011;14791;52.392;13.092;2023-03-31T05:15:38;1.07;;;0.93;;
27303;SDS011;14791;52.392;13.092;2023-03-31T05:18:09;1.20;;;1.10;;
27303;SDS011;14791;52.392;13.092;2023-03-31T05:20:38;0.97;;;0.97;;
27303;SDS011;14791;52.392;13.092;2023-03-31T05:23:07;1.37;;;1.03;;
27303;SDS011;14791;52.392;13.092;2023-03-31T05:25:36;1.20;;;0.83;;
27303;SDS011;14791;52.392;13.092;2023-03-31T05:28:05;1.10;;;1.00;;
27303;SDS011;14791;52.392;13.092;2023-03-31T05:30:34;0.90;;;0.90;;
27303;SDS011;14791;52.392;13.092;2023-03-31T05:33:03;1.13;;;0.80;;
27303;SDS011;14791;52.392;13.092;2023-03-31T05:35:32;2.70;;;1.10;;
27303;SDS011;14791;52.392;13.092;2023-03-31T05:38:01;1.30;;;1.20;;
27303;SDS011;14791;52.392;13.092;2023-03-31T05:40:31;2.67;;;1.37;;
27303;SDS011;14791;52.392;13.092;2023-03-31T05:43:00;1.20;;;1.10;;
27303;SDS011;14791;52.392;13.092;2023-03-31T05:45:29;1.80;;;1.20;;
27303;SDS011;14791;52.392;13.092;2023-03-31T05:47:58;1.27;;;0.87;;
27303;SDS011;14791;52.392;13.092;2023-03-31T05:50:27;1.47;;;1.37;;
27303;SDS011;14791;52.392;13.092;2023-03-31T05:52:56;1.97;;;1.40;;
27303;SDS011;14791;52.392;13.092;2023-03-31T05:55:25;1.53;;;0.87;;
27303;SDS011;14791;52.392;13.092;2023-03-31T05:57:54;1.43;;;1.30;;
27303;SDS011;14791;52.392;13.092;2023-03-31T06:00:23;1.70;;;1.30;;
27303;SDS011;14791;52.392;13.092;2023-03-31T06:02:52;1.40;;;1.27;;
27303;SDS011;14791;52.392;13.092;2023-03-31T06:05:21;0.90;;;0.90;;
27303;SDS011;14791;52.392;13.092;2023-03-31T06:07:52;1.37;;;0.90;;
27303;SDS011;14791;52.392;13.092;2023-03-31T06:10:21;1.37;;;1.27;;
27303;SDS011;14791;52.392;13.092;2023-03-31T06:12:50;2.30;;;1.40;;
27303;SDS011;14791;52.392;13.092;2023-03-31T06:15:19;1.47;;;1.13;;
27303;SDS011;14791;52.392;13.092;2023-03-31T06:17:47;2.80;;;1.60;;
27303;SDS011;14791;52.392;13.092;2023-03-31T06:20:16;1.10;;;1.10;;
27303;SDS011;14791;52.392;13.092;2023-03-31T06:22:46;1.80;;;1.10;;
27303;SDS011;14791;52.392;13.092;2023-03-31T06:25:14;1.23;;;1.20;;
27303;SDS011;14791;52.392;13.092;2023-03-31T06:27:43;2.17;;;2.00;;
27303;SDS011;14791;52.392;13.092;2023-03-31T06:30:12;1.30;;;1.20;;
27303;SDS011;14791;52.392;13.092;2023-03-31T06:32:41;3.00;;;1.37;;
27303;SDS011;14791;52.392;13.092;2023-03-31T06:35:10;1.20;;;1.10;;
27303;SDS011;14791;52.392;13.092;2023-03-31T06:37:39;1.17;;;1.13;;
27303;SDS011;14791;52.392;13.092;2023-03-31T06:40:08;1.23;;;1.20;;
27303;SDS011;14791;52.392;13.092;2023-03-31T06:42:38;1.70;;;1.10;;
27303;SDS011;14791;52.392;13.092;2023-03-31T06:45:07;1.50;;;1.13;;
27303;SDS011;14791;52.392;13.092;2023-03-31T06:47:36;1.67;;;1.40;;
27303;SDS011;14791;52.392;13.092;2023-03-31T06:50:07;1.15;;;1.15;;
27303;SDS011;14791;52.392;13.092;2023-03-31T06:52:37;0.97;;;0.97;;
27303;SDS011;14791;52.392;13.092;2023-03-31T06:55:09;1.50;;;1.40;;
27303;SDS011;14791;52.392;13.092;2023-03-31T06:57:39;2.65;;;1.10;;
27303;SDS011;14791;52.392;13.092;2023-03-31T07:00:08;1.70;;;1.17;;
27303;SDS011;14791;52.392;13.092;2023-03-31T07:02:38;1.70;;;1.10;;
27303;SDS011;14791;52.392;13.092;2023-03-31T07:05:07;1.27;;;1.20;;
27303;SDS011;14791;52.392;13.092;2023-03-31T07:07:36;1.40;;;1.20;;
27303;SDS011;14791;52.392;13.092;2023-03-31T07:10:05;1.70;;;1.20;;
27303;SDS011;14791;52.392;13.092;2023-03-31T07:12:34;2.47;;;0.90;;
27303;SDS011;14791;52.392;13.092;2023-03-31T07:15:04;1.67;;;1.20;;
27303;SDS011;14791;52.392;13.092;2023-03-31T07:17:33;1.40;;;1.30;;
27303;SDS011;14791;52.392;13.092;2023-03-31T07:20:03;2.52;;;1.10;;
27303;SDS011;14791;52.392;13.092;2023-03-31T07:22:34;1.10;;;1.00;;
27303;SDS011;14791;52.392;13.092;2023-03-31T07:25:03;1.33;;;1.23;;
27303;SDS011;14791;52.392;13.092;2023-03-31T07:27:33;1.72;;;1.30;;
27303;SDS011;14791;52.392;13.092;2023-03-31T07:30:03;2.43;;;1.23;;
27303;SDS011;14791;52.392;13.092;2023-03-31T07:32:33;1.90;;;1.10;;
27303;SDS011;14791;52.392;13.092;2023-03-31T07:35:04;1.40;;;1.30;;
27303;SDS011;14791;52.392;13.092;2023-03-31T07:37:41;1.50;;;1.40;;
27303;SDS011;14791;52.392;13.092;2023-03-31T07:40:13;1.90;;;1.65;;
27303;SDS011;14791;52.392;13.092;2023-03-31T07:42:44;1.72;;;1.62;;
27303;SDS011;14791;52.392;13.092;2023-03-31T07:45:18;2.40;;;2.22;;
27303;SDS011;14791;52.392;13.092;2023-03-31T07:47:48;1.50;;;1.40;;
27303;SDS011;14791;52.392;13.092;2023-03-31T07:50:18;1.42;;;1.32;;
27303;SDS011;14791;52.392;13.092;2023-03-31T07:52:49;2.30;;;1.62;;
27303;SDS011;14791;52.392;13.092;2023-03-31T07:55:19;1.95;;;1.85;;
27303;SDS011;14791;52.392;13.092;2023-03-31T07:57:49;2.40;;;1.32;;
27303;SDS011;14791;52.392;13.092;2023-03-31T08:00:18;1.45;;;1.35;;
27303;SDS011;14791;52.392;13.092;2023-03-31T08:02:48;1.47;;;1.37;;
27303;SDS011;14791;52.392;13.092;2023-03-31T08:05:17;1.37;;;1.27;;
27303;SDS011;14791;52.392;13.092;2023-03-31T08:07:48;1.35;;;1.27;;
27303;SDS011;14791;52.392;13.092;2023-03-31T08:10:19;1.20;;;1.10;;
27303;SDS011;14791;52.392;13.092;2023-03-31T08:12:49;1.00;;;1.00;;
27303;SDS011;14791;52.392;13.092;2023-03-31T08:15:19;1.67;;;1.57;;
27303;SDS011;14791;52.392;13.092;2023-03-31T08:17:48;1.75;;;1.10;;
27303;SDS011;14791;52.392;13.092;2023-03-31T08:20:17;0.93;;;0.80;;
27303;SDS011;14791;52.392;13.092;2023-03-31T08:22:46;0.90;;;0.90;;
27303;SDS011;14791;52.392;13.092;2023-03-31T08:25:15;1.77;;;1.27;;
27303;SDS011;14791;52.392;13.092;2023-03-31T08:27:44;1.90;;;1.17;;
27303;SDS011;14791;52.392;13.092;2023-03-31T08:30:15;1.00;;;1.00;;
27303;SDS011;14791;52.392;13.092;2023-03-31T08:32:46;1.50;;;1.22;;
27303;SDS011;14791;52.392;13.092;2023-03-31T08:35:15;1.67;;;1.32;;
27303;SDS011;14791;52.392;13.092;2023-03-31T08:37:43;1.37;;;0.85;;
27303;SDS011;14791;52.392;13.092;2023-03-31T08:40:14;1.87;;;1.10;;
27303;SDS011;14791;52.392;13.092;2023-03-31T08:42:46;2.22;;;1.35;;
27303;SDS011;14791;52.392;13.092;2023-03-31T08:45:36;0.80;;;0.80;;
27303;SDS011;14791;52.392;13.092;2023-03-31T08:48:16;0.90;;;0.90;;
27303;SDS011;14791;52.392;13.092;2023-03-31T08:50:55;0.95;;;0.93;;
27303;SDS011;14791;52.392;13.092;2023-03-31T08:53:46;1.50;;;1.40;;
27303;SDS011;14791;52.392;13.092;2023-03-31T08:56:20;1.98;;;1.60;;
27303;SDS011;14791;52.392;13.092;2023-03-31T08:58:51;1.32;;;1.07;;
27303;SDS011;14791;52.392;13.092;2023-03-31T09:04:26;1.32;;;1.12;;
27303;SDS011;14791;52.392;13.092;2023-03-31T09:07:10;1.07;;;1.07;;
27303;SDS011;14791;52.392;13.092;2023-03-31T09:15:25;1.95;;;1.10;;
27303;SDS011;14791;52.392;13.092;2023-03-31T09:18:28;1.30;;;1.10;;
27303;SDS011;14791;52.392;13.092;2023-03-31T09:21:27;1.98;;;1.05;;
27303;SDS011;14791;52.392;13.092;2023-03-31T09:23:53;0.90;;;0.90;;
27303;SDS011;14791;52.392;13.092;2023-03-31T09:26:26;1.42;;;1.10;;
27303;SDS011;14791;52.392;13.092;2023-03-31T09:29:13;1.15;;;1.15;;
27303;SDS011;14791;52.392;13.092;2023-03-31T09:31:47;0.75;;;0.75;;
27303;SDS011;14791;52.392;13.092;2023-03-31T09:34:21;1.55;;;1.00;;
27303;SDS011;14791;52.392;13.092;2023-03-31T09:36:48;1.30;;;1.20;;
27303;SDS011;14791;52.392;13.092;2023-03-31T09:39:18;1.80;;;1.10;;
27303;SDS011;14791;52.392;13.092;2023-03-31T09:41:48;1.50;;;1.20;;
27303;SDS011;14791;52.392;13.092;2023-03-31T09:46:52;1.32;;;0.93;;
27303;SDS011;14791;52.392;13.092;2023-03-31T09:49:23;1.20;;;1.10;;
27303;SDS011;14791;52.392;13.092;2023-03-31T09:52:08;1.32;;;1.20;;
27303;SDS011;14791;52.392;13.092;2023-03-31T09:55:00;1.37;;;1.27;;
27303;SDS011;14791;52.392;13.092;2023-03-31T09:57:32;1.12;;;1.12;;
27303;SDS011;14791;52.392;13.092;2023-03-31T10:10:52;1.27;;;1.20;;
27303;SDS011;14791;52.392;13.092;2023-03-31T10:13:26;1.20;;;1.20;;
27303;SDS011;14791;52.392;13.092;2023-03-31T10:16:01;1.30;;;1.20;;
27303;SDS011;14791;52.392;13.092;2023-03-31T10:18:35;1.00;;;1.00;;
27303;SDS011;14791;52.392;13.092;2023-03-31T10:21:06;0.90;;;0.90;;
27303;SDS011;14791;52.392;13.092;2023-03-31T10:23:53;0.70;;;0.70;;
27303;SDS011;14791;52.392;13.092;2023-03-31T10:26:26;1.00;;;1.00;;
27303;SDS011;14791;52.392;13.092;2023-03-31T10:28:55;1.92;;;1.20;;
27303;SDS011;14791;52.392;13.092;2023-03-31T10:31:25;2.00;;;1.10;;
27303;SDS011;14791;52.392;13.092;2023-03-31T10:33:56;1.00;;;1.00;;
27303;SDS011;14791;52.392;13.092;2023-03-31T10:36:26;1.10;;;1.00;;
27303;SDS011;14791;52.392;13.092;2023-03-31T10:39:04;1.10;;;1.10;;
27303;SDS011;14791;52.392;13.092;2023-03-31T10:41:33;1.37;;;1.27;;
27303;SDS011;14791;52.392;13.092;2023-03-31T10:44:03;1.57;;;1.50;;
27303;SDS011;14791;52.392;13.092;2023-03-31T10:46:39;1.00;;;1.00;;
27303;SDS011;14791;52.392;13.092;2023-03-31T10:49:14;1.10;;;1.10;;
27303;SDS011;14791;52.392;13.092;2023-03-31T10:51:58;1.20;;;1.10;;
27303;SDS011;14791;52.392;13.092;2023-03-31T10:54:22;2.15;;;1.40;;
27303;SDS011;14791;52.392;13.092;2023-03-31T10:56:53;1.17;;;1.17;;
27303;SDS011;14791;52.392;13.092;2023-03-31T10:59:41;1.62;;;1.32;;
27303;SDS011;14791;52.392;13.092;2023-03-31T11:07:49;0.80;;;0.80;;
27303;SDS011;14791;52.392;13.092;2023-03-31T11:13:08;1.10;;;1.00;;
27303;SDS011;14791;52.392;13.092;2023-03-31T11:26:57;1.67;;;1.57;;
27303;SDS011;14791;52.392;13.092;2023-03-31T11:29:47;1.30;;;1.30;;
27303;SDS011;14791;52.392;13.092;2023-03-31T11:34:59;1.45;;;1.40;;
27303;SDS011;14791;52.392;13.092;2023-03-31T11:40:14;0.95;;;0.90;;
27303;SDS011;14791;52.392;13.092;2023-03-31T11:42:59;1.30;;;1.05;;
27303;SDS011;14791;52.392;13.092;2023-03-31T11:45:40;0.98;;;0.95;;
27303;SDS011;14791;52.392;13.092;2023-03-31T11:48:19;0.95;;;0.95;;
27303;SDS011;14791;52.392;13.092;2023-03-31T11:50:54;1.72;;;1.15;;
27303;SDS011;14791;52.392;13.092;2023-03-31T11:53:29;1.52;;;1.30;;
27303;SDS011;14791;52.392;13.092;2023-03-31T11:55:59;1.32;;;1.22;;
27303;SDS011;14791;52.392;13.092;2023-03-31T11:58:38;1.15;;;1.15;;
27303;SDS011;14791;52.392;13.092;2023-03-31T12:01:13;2.17;;;1.40;;
27303;SDS011;14791;52.392;13.092;2023-03-31T12:06:39;1.10;;;1.00;;
27303;SDS011;14791;52.392;13.092;2023-03-31T12:09:35;1.17;;;1.00;;
27303;SDS011;14791;52.392;13.092;2023-03-31T12:14:47;1.10;;;1.10;;
27303;SDS011;14791;52.392;13.092;2023-03-31T12:17:13;1.50;;;1.40;;
27303;SDS011;14791;52.392;13.092;2023-03-31T12:22:32;1.55;;;1.45;;
27303;SDS011;14791;52.392;13.092;2023-03-31T12:25:05;1.25;;;1.25;;
27303;SDS011;14791;52.392;13.092;2023-03-31T12:27:38;1.60;;;1.50;;
27303;SDS011;14791;52.392;13.092;2023-03-31T12:30:12;1.10;;;1.10;;
27303;SDS011;14791;52.392;13.092;2023-03-31T12:32:47;1.30;;;1.20;;
27303;SDS011;14791;52.392;13.092;2023-03-31T12:35:22;1.45;;;1.45;;
27303;SDS011;14791;52.392;13.092;2023-03-31T12:37:54;1.50;;;1.50;;
27303;SDS011;14791;52.392;13.092;2023-03-31T12:49:03;1.60;;;1.50;;
27303;SDS011;14791;52.392;13.092;2023-03-31T12:51:54;2.50;;;1.70;;
27303;SDS011;14791;52.392;13.092;2023-03-31T12:57:25;1.70;;;1.50;;
27303;SDS011;14791;52.392;13.092;2023-03-31T13:02:43;1.33;;;1.33;;
27303;SDS011;14791;52.392;13.092;2023-03-31T13:08:07;1.80;;;1.73;;
27303;SDS011;14791;52.392;13.092;2023-03-31T13:10:53;1.70;;;1.60;;
27303;SDS011;14791;52.392;13.092;2023-03-31T13:13:25;1.70;;;1.70;;
27303;SDS011;14791;52.392;13.092;2023-03-31T13:15:55;2.00;;;1.73;;
27303;SDS011;14791;52.392;13.092;2023-03-31T13:18:25;1.40;;;1.30;;
27303;SDS011;14791;52.392;13.092;2023-03-31T13:21:00;2.37;;;1.60;;
27303;SDS011;14791;52.392;13.092;2023-03-31T13:23:34;1.20;;;1.20;;
27303;SDS011;14791;52.392;13.092;2023-03-31T13:26:04;1.40;;;1.30;;
27303;SDS011;14791;52.392;13.092;2023-03-31T13:28:37;1.50;;;1.40;;
27303;SDS011;14791;52.392;13.092;2023-03-31T13:31:09;1.20;;;1.10;;
27303;SDS011;14791;52.392;13.092;2023-03-31T13:33:44;1.30;;;1.30;;
27303;SDS011;14791;52.392;13.092;2023-03-31T13:44:37;0.97;;;0.80;;
27303;SDS011;14791;52.392;13.092;2023-03-31T13:50:11;1.10;;;1.03;;
27303;SDS011;14791;52.392;13.092;2023-03-31T13:53:14;1.10;;;1.00;;
27303;SDS011;14791;52.392;13.092;2023-03-31T14:04:29;0.53;;;0.50;;
27303;SDS011;14791;52.392;13.092;2023-03-31T14:10:03;0.90;;;0.90;;
27303;SDS011;14791;52.392;13.092;2023-03-31T14:12:34;1.03;;;0.93;;
27303;SDS011;14791;52.392;13.092;2023-03-31T14:15:04;0.80;;;0.73;;
27303;SDS011;14791;52.392;13.092;2023-03-31T14:17:39;1.30;;;1.20;;
27303;SDS011;14791;52.392;13.092;2023-03-31T14:20:21;1.17;;;1.17;;
27303;SDS011;14791;52.392;13.092;2023-03-31T14:25:52;0.97;;;0.97;;
27303;SDS011;14791;52.392;13.092;2023-03-31T14:31:21;0.63;;;0.63;;
27303;SDS011;14791;52.392;13.092;2023-03-31T14:39:20;0.70;;;0.70;;
27303;SDS011;14791;52.392;13.092;2023-03-31T14:41:50;0.77;;;0.50;;
27303;SDS011;14791;52.392;13.092;2023-03-31T14:44:20;0.67;;;0.63;;
27303;SDS011;14791;52.392;13.092;2023-03-31T14:46:49;0.40;;;0.40;;
27303;SDS011;14791;52.392;13.092;2023-03-31T14:51:54;0.87;;;0.70;;
27303;SDS011;14791;52.392;13.092;2023-03-31T14:54:24;0.70;;;0.70;;
27303;SDS011;14791;52.392;13.092;2023-03-31T14:56:54;0.80;;;0.80;;
27303;SDS011;14791;52.392;13.092;2023-03-31T14:59:31;0.73;;;0.73;;
27303;SDS011;14791;52.392;13.092;2023-03-31T15:01:59;0.80;;;0.80;;
27303;SDS011;14791;52.392;13.092;2023-03-31T15:04:33;0.47;;;0.47;;
27303;SDS011;14791;52.392;13.092;2023-03-31T15:07:02;0.60;;;0.60;;
27303;SDS011;14791;52.392;13.092;2023-03-31T15:09:32;0.60;;;0.60;;
27303;SDS011;14791;52.392;13.092;2023-03-31T15:12:03;0.60;;;0.60;;
27303;SDS011;14791;52.392;13.092;2023-03-31T15:14:39;0.40;;;0.40;;
27303;SDS011;14791;52.392;13.092;2023-03-31T15:17:26;0.43;;;0.43;;
27303;SDS011;14791;52.392;13.092;2023-03-31T15:19:58;0.50;;;0.50;;
27303;SDS011;14791;52.392;13.092;2023-03-31T15:22:30;0.37;;;0.37;;
27303;SDS011;14791;52.392;13.092;2023-03-31T15:24:59;0.60;;;0.60;;
27303;SDS011;14791;52.392;13.092;2023-03-31T15:27:35;0.80;;;0.80;;
27303;SDS011;14791;52.392;13.092;2023-03-31T15:30:07;0.60;;;0.60;;
27303;SDS011;14791;52.392;13.092;2023-03-31T15:32:38;0.67;;;0.67;;
27303;SDS011;14791;52.392;13.092;2023-03-31T15:35:15;0.60;;;0.60;;
27303;SDS011;14791;52.392;13.092;2023-03-31T15:37:45;0.90;;;0.90;;
27303;SDS011;14791;52.392;13.092;2023-03-31T15:40:17;1.23;;;1.13;;
27303;SDS011;14791;52.392;13.092;2023-03-31T15:42:50;1.13;;;1.13;;
27303;SDS011;14791;52.392;13.092;2023-03-31T15:48:08;1.53;;;1.53;;
27303;SDS011;14791;52.392;13.092;2023-03-31T15:50:38;0.70;;;0.70;;
27303;SDS011;14791;52.392;13.092;2023-03-31T15:53:25;1.07;;;0.73;;
27303;SDS011;14791;52.392;13.092;2023-03-31T15:55:58;0.80;;;0.70;;
27303;SDS011;14791;52.392;13.092;2023-03-31T16:01:27;0.50;;;0.50;;
27303;SDS011;14791;52.392;13.092;2023-03-31T16:03:59;0.70;;;0.70;;
27303;SDS011;14791;52.392;13.092;2023-03-31T16:06:50;0.80;;;0.80;;
27303;SDS011;14791;52.392;13.092;2023-03-31T16:09:21;0.50;;;0.50;;
27303;SDS011;14791;52.392;13.092;2023-03-31T16:11:56;0.50;;;0.50;;
27303;SDS011;14791;52.392;13.092;2023-03-31T16:14:28;2.07;;;0.60;;
27303;SDS011;14791;52.392;13.092;2023-03-31T16:17:00;0.60;;;0.60;;
27303;SDS011;14791;52.392;13.092;2023-03-31T16:19:37;0.40;;;0.40;;
27303;SDS011;14791;52.392;13.092;2023-03-31T16:22:12;0.57;;;0.57;;
27303;SDS011;14791;52.392;13.092;2023-03-31T16:24:44;1.20;;;1.20;;
27303;SDS011;14791;52.392;13.092;2023-03-31T16:27:13;0.70;;;0.70;;
27303;SDS011;14791;52.392;13.092;2023-03-31T16:29:42;0.80;;;0.80;;
27303;SDS011;14791;52.392;13.092;2023-03-31T16:32:15;0.60;;;0.60;;
27303;SDS011;14791;52.392;13.092;2023-03-31T16:37:24;0.40;;;0.40;;
27303;SDS011;14791;52.392;13.092;2023-03-31T16:39:54;0.50;;;0.50;;
27303;SDS011;14791;52.392;13.092;2023-03-31T16:42:24;0.77;;;0.77;;
27303;SDS011;14791;52.392;13.092;2023-03-31T16:44:54;0.70;;;0.70;;
27303;SDS011;14791;52.392;13.092;2023-03-31T16:47:22;0.40;;;0.40;;
27303;SDS011;14791;52.392;13.092;2023-03-31T16:49:52;0.93;;;0.80;;
27303;SDS011;14791;52.392;13.092;2023-03-31T16:52:20;0.73;;;0.67;;
27303;SDS011;14791;52.392;13.092;2023-03-31T16:54:49;0.80;;;0.80;;
27303;SDS011;14791;52.392;13.092;2023-03-31T16:57:18;0.40;;;0.40;;
27303;SDS011;14791;52.392;13.092;2023-03-31T16:59:47;0.90;;;0.90;;
27303;SDS011;14791;52.392;13.092;2023-03-31T17:02:16;1.37;;;1.37;;
27303;SDS011;14791;52.392;13.092;2023-03-31T17:04:45;2.03;;;1.93;;
27303;SDS011;14791;52.392;13.092;2023-03-31T17:07:14;1.50;;;1.40;;
27303;SDS011;14791;52.392;13.092;2023-03-31T17:09:43;1.00;;;1.00;;
27303;SDS011;14791;52.392;13.092;2023-03-31T17:12:12;0.60;;;0.60;;
27303;SDS011;14791;52.392;13.092;2023-03-31T17:14:41;0.40;;;0.40;;
27303;SDS011;14791;52.392;13.092;2023-03-31T17:17:10;1.03;;;1.03;;
27303;SDS011;14791;52.392;13.092;2023-03-31T17:19:39;0.90;;;0.90;;
27303;SDS011;14791;52.392;13.092;2023-03-31T17:22:08;0.90;;;0.90;;
27303;SDS011;14791;52.392;13.092;2023-03-31T17:24:37;0.83;;;0.83;;
27303;SDS011;14791;52.392;13.092;2023-03-31T17:27:06;0.90;;;0.90;;
27303;SDS011;14791;52.392;13.092;2023-03-31T17:29:35;0.97;;;0.97;;
27303;SDS011;14791;52.392;13.092;2023-03-31T17:32:04;1.00;;;1.00;;
27303;SDS011;14791;52.392;13.092;2023-03-31T17:34:33;1.50;;;1.30;;
27303;SDS011;14791;52.392;13.092;2023-03-31T17:37:02;1.33;;;1.33;;
27303;SDS011;14791;52.392;13.092;2023-03-31T17:39:31;1.40;;;1.40;;